createdAt,value
2023-05-14T00:04:34.530Z,12.27
2023-05-14T00:07:04.250Z,9.55
2023-05-14T00:09:31.879Z,10.35
2023-05-14T00:11:59.413Z,9.93
2023-05-14T00:14:28.324Z,10.00
2023-05-14T00:16:57.337Z,10.82
2023-05-14T00:19:25.779Z,9.75
2023-05-14T00:21:54.346Z,9.20
2023-05-14T00:24:28.064Z,10.63
2023-05-14T00:26:57.477Z,9.90
2023-05-14T00:29:25.730Z,10.25
2023-05-14T00:31:53.578Z,12.35
2023-05-14T00:34:22.797Z,10.30
2023-05-14T00:36:51.804Z,8.85
2023-05-14T00:39:19.340Z,10.75
2023-05-14T00:41:50.207Z,11.02
2023-05-14T00:44:43.570Z,10.38
2023-05-14T00:47:11.931Z,10.70
2023-05-14T00:49:41.140Z,12.40
2023-05-14T00:52:09.455Z,10.75
2023-05-14T00:54:38.928Z,11.68
2023-05-14T01:00:01.231Z,11.48
2023-05-14T01:02:32.546Z,9.82
2023-05-14T01:07:37.417Z,12.38
2023-05-14T01:10:11.872Z,10.13
2023-05-14T01:12:48.346Z,8.30
2023-05-14T01:15:22.358Z,8.73
2023-05-14T01:17:57.650Z,9.88
2023-05-14T01:20:25.614Z,8.82
2023-05-14T01:22:57.363Z,8.80
2023-05-14T01:25:25.041Z,8.82
2023-05-14T01:28:04.358Z,11.60
2023-05-14T01:30:38.373Z,10.07
2023-05-14T01:33:12.356Z,10.15
2023-05-14T01:35:45.348Z,8.48
2023-05-14T01:38:17.256Z,8.32
2023-05-14T01:43:15.429Z,11.60
2023-05-14T01:45:43.660Z,9.45
2023-05-14T01:48:11.442Z,10.15
2023-05-14T01:50:39.105Z,8.20
2023-05-14T01:53:06.655Z,10.00
2023-05-14T01:55:37.436Z,10.48
2023-05-14T01:58:06.314Z,9.05
2023-05-14T02:00:34.369Z,9.32
2023-05-14T02:03:26.250Z,10.00
2023-05-14T02:05:54.126Z,9.48
2023-05-14T02:08:21.794Z,9.82
2023-05-14T02:13:42.440Z,11.30
2023-05-14T02:16:12.396Z,9.15
2023-05-14T02:18:40.308Z,10.75
2023-05-14T02:21:09.343Z,11.63
2023-05-14T02:23:41.420Z,10.82
2023-05-14T02:26:13.374Z,10.90
2023-05-14T02:28:41.750Z,9.05
2023-05-14T02:31:09.354Z,9.75
2023-05-14T02:33:37.837Z,8.68
2023-05-14T02:36:05.686Z,8.68
2023-05-14T02:38:33.261Z,10.65
2023-05-14T02:41:01.717Z,9.52
2023-05-14T02:43:30.577Z,8.32
2023-05-14T02:45:59.383Z,8.68
2023-05-14T02:48:27.045Z,10.20
2023-05-14T02:50:54.880Z,10.02
2023-05-14T02:56:15.328Z,9.57
2023-05-14T02:58:45.200Z,9.85
2023-05-14T03:01:13.749Z,8.32
2023-05-14T03:03:42.432Z,8.82
2023-05-14T03:06:11.111Z,8.70
2023-05-14T03:08:38.686Z,10.05
2023-05-14T03:11:06.831Z,8.55
2023-05-14T03:13:34.481Z,9.32
2023-05-14T03:16:04.201Z,8.43
2023-05-14T03:18:33.289Z,10.60
2023-05-14T03:21:01.180Z,8.50
2023-05-14T03:23:28.793Z,8.70
2023-05-14T03:25:57.355Z,10.20
2023-05-14T03:28:25.962Z,7.63
2023-05-14T03:30:53.684Z,8.10
2023-05-14T03:33:25.326Z,9.25
2023-05-14T03:35:53.862Z,8.55
2023-05-14T03:38:23.488Z,8.82
2023-05-14T03:40:51.363Z,9.70
2023-05-14T03:43:18.886Z,9.73
2023-05-14T03:45:46.864Z,8.05
2023-05-14T03:48:17.679Z,8.93
2023-05-14T03:50:47.505Z,8.00
2023-05-14T03:53:15.147Z,9.95
2023-05-14T03:55:42.818Z,7.95
2023-05-14T03:58:14.227Z,7.80
2023-05-14T04:00:43.356Z,8.43
2023-05-14T04:03:12.111Z,9.27
2023-05-14T04:05:39.778Z,7.57
2023-05-14T04:08:09.246Z,7.50
2023-05-14T04:10:36.867Z,7.55
2023-05-14T04:13:04.528Z,9.25
2023-05-14T04:15:35.686Z,8.32
2023-05-14T04:18:04.426Z,9.18
2023-05-14T04:20:34.329Z,7.40
2023-05-14T04:23:02.380Z,8.80
2023-05-14T04:25:31.483Z,8.77
2023-05-14T04:28:00.350Z,9.02
2023-05-14T04:30:27.891Z,11.57
2023-05-14T04:32:56.373Z,7.97
2023-05-14T04:35:25.148Z,8.55
2023-05-14T04:37:53.356Z,10.07
2023-05-14T04:40:22.695Z,9.65
2023-05-14T04:42:52.076Z,7.80
2023-05-14T04:45:20.131Z,8.90
2023-05-14T04:47:47.765Z,8.82
2023-05-14T04:50:16.363Z,10.63
2023-05-14T04:52:43.916Z,8.45
2023-05-14T04:55:12.458Z,9.30
2023-05-14T04:57:39.990Z,9.10
2023-05-14T05:00:11.098Z,8.80
2023-05-14T05:02:38.879Z,12.43
2023-05-14T05:05:07.017Z,11.10
2023-05-14T05:07:35.346Z,11.65
2023-05-14T05:10:03.262Z,13.20
2023-05-14T05:12:30.993Z,12.15
2023-05-14T05:14:59.449Z,11.52
2023-05-14T05:17:30.115Z,12.48
2023-05-14T05:19:58.365Z,10.93
2023-05-14T05:22:26.059Z,11.25
2023-05-14T05:24:55.735Z,13.80
2023-05-14T05:27:23.292Z,11.55
2023-05-14T05:29:51.504Z,10.65
2023-05-14T05:32:19.134Z,10.88
2023-05-14T05:34:50.384Z,9.57
2023-05-14T05:37:18.349Z,11.20
2023-05-14T05:39:47.558Z,9.52
2023-05-14T05:42:15.370Z,11.23
2023-05-14T05:44:42.957Z,9.82
2023-05-14T05:47:10.804Z,9.55
2023-05-14T05:49:38.436Z,10.35
2023-05-14T05:52:11.265Z,9.25
2023-05-14T05:54:40.668Z,10.77
2023-05-14T05:57:08.304Z,11.32
2023-05-14T05:59:36.080Z,11.48
2023-05-14T06:02:03.658Z,9.38
2023-05-14T06:04:31.344Z,8.82
2023-05-14T06:06:59.014Z,9.68
2023-05-14T06:09:27.985Z,9.23
2023-05-14T06:11:55.856Z,7.90
2023-05-14T06:14:23.449Z,7.85
2023-05-14T06:16:51.632Z,8.23
2023-05-14T06:19:19.452Z,7.53
2023-05-14T06:21:47.445Z,7.32
2023-05-14T06:24:15.055Z,7.22
2023-05-14T06:26:44.212Z,6.97
2023-05-14T06:29:11.960Z,7.22
2023-05-14T06:34:31.739Z,7.18
2023-05-14T06:36:59.410Z,6.60
2023-05-14T06:39:31.358Z,6.03
2023-05-14T06:42:01.392Z,5.85
2023-05-14T06:44:32.059Z,4.95
2023-05-14T06:47:00.519Z,5.13
2023-05-14T06:49:28.081Z,4.72
2023-05-14T06:51:56.019Z,5.10
2023-05-14T06:54:23.549Z,4.63
2023-05-14T06:56:51.116Z,4.47
2023-05-14T06:59:21.168Z,4.72
2023-05-14T07:01:49.338Z,4.60
2023-05-14T07:04:16.938Z,5.07
2023-05-14T07:06:44.531Z,4.80
2023-05-14T07:09:12.119Z,4.45
2023-05-14T07:11:43.485Z,4.90
2023-05-14T07:14:11.071Z,6.38
2023-05-14T07:16:40.192Z,4.60
2023-05-14T07:19:09.919Z,5.30
2023-05-14T07:21:38.448Z,4.82
2023-05-14T07:24:06.849Z,5.13
2023-05-14T07:26:35.168Z,4.85
2023-05-14T07:29:03.169Z,4.05
2023-05-14T07:31:31.593Z,4.43
2023-05-14T07:34:00.457Z,4.30
2023-05-14T07:36:28.358Z,5.00
2023-05-14T07:38:56.873Z,4.28
2023-05-14T07:41:24.462Z,3.97
2023-05-14T07:43:52.029Z,4.45
2023-05-14T07:46:19.586Z,3.55
2023-05-14T07:48:49.451Z,5.03
2023-05-14T07:51:18.340Z,4.45
2023-05-14T07:53:47.917Z,3.85
2023-05-14T07:56:16.875Z,4.97
2023-05-14T07:58:44.900Z,4.10
2023-05-14T08:01:12.733Z,4.30
2023-05-14T08:03:40.962Z,4.00
2023-05-14T08:06:08.991Z,3.50
2023-05-14T08:08:37.847Z,4.15
2023-05-14T08:11:06.311Z,4.35
2023-05-14T08:13:33.959Z,4.38
2023-05-14T08:16:02.052Z,4.57
2023-05-14T08:18:29.930Z,4.15
2023-05-14T08:20:57.859Z,4.57
2023-05-14T08:23:26.370Z,4.15
2023-05-14T08:25:55.242Z,4.25
2023-05-14T08:28:22.868Z,3.72
2023-05-14T08:30:52.449Z,4.72
2023-05-14T08:33:20.060Z,4.03
2023-05-14T08:35:47.615Z,3.65
2023-05-14T08:38:15.659Z,4.65
2023-05-14T08:40:44.420Z,3.50
2023-05-14T08:43:19.653Z,4.00
2023-05-14T08:45:51.826Z,3.63
2023-05-14T08:48:24.220Z,4.55
2023-05-14T08:50:53.405Z,3.90
2023-05-14T08:53:22.888Z,3.90
2023-05-14T08:55:52.396Z,3.80
2023-05-14T08:58:21.345Z,4.60
2023-05-14T09:00:49.321Z,3.95
2023-05-14T09:03:18.326Z,4.15
2023-05-14T09:05:48.402Z,4.35
2023-05-14T09:08:16.859Z,3.85
2023-05-14T09:10:44.556Z,3.63
2023-05-14T09:13:12.933Z,4.07
2023-05-14T09:15:42.375Z,3.53
2023-05-14T09:18:11.280Z,4.00
2023-05-14T09:20:39.602Z,3.70
2023-05-14T09:23:07.177Z,3.83
2023-05-14T09:25:34.886Z,3.38
2023-05-14T09:28:06.922Z,3.35
2023-05-14T09:30:36.979Z,3.10
2023-05-14T09:33:08.628Z,3.35
2023-05-14T09:35:40.163Z,3.50
2023-05-14T09:38:07.765Z,2.88
2023-05-14T09:40:35.288Z,3.10
2023-05-14T09:43:03.505Z,3.30
2023-05-14T09:45:31.664Z,3.38
2023-05-14T09:48:01.715Z,3.05
2023-05-14T09:50:34.374Z,3.15
2023-05-14T09:53:02.889Z,2.80
2023-05-14T09:55:30.620Z,3.10
2023-05-14T09:57:58.201Z,3.33
2023-05-14T10:00:27.389Z,3.28
2023-05-14T10:02:57.784Z,2.95
2023-05-14T10:05:26.780Z,2.67
2023-05-14T10:08:00.854Z,3.00
2023-05-14T10:10:29.919Z,3.03
2023-05-14T10:12:59.389Z,2.83
2023-05-14T10:15:32.001Z,2.88
2023-05-14T10:18:04.542Z,3.25
2023-05-14T10:20:32.744Z,3.05
2023-05-14T10:23:03.392Z,3.40
2023-05-14T10:25:31.201Z,3.67
2023-05-14T10:27:59.185Z,3.22
2023-05-14T10:30:27.023Z,3.63
2023-05-14T10:33:09.062Z,3.65
2023-05-14T10:35:55.931Z,3.72
2023-05-14T10:38:28.441Z,2.80
2023-05-14T10:41:03.790Z,3.10
2023-05-14T10:43:32.184Z,3.13
2023-05-14T10:46:01.400Z,3.25
2023-05-14T10:48:29.565Z,3.55
2023-05-14T10:50:58.523Z,3.13
2023-05-14T10:53:37.663Z,2.65
2023-05-14T10:56:08.488Z,3.00
2023-05-14T10:58:39.407Z,3.40
2023-05-14T11:01:08.704Z,2.87
2023-05-14T11:03:41.674Z,3.42
2023-05-14T11:06:11.079Z,3.15
2023-05-14T11:08:41.420Z,3.55
2023-05-14T11:11:10.246Z,4.43
2023-05-14T11:13:37.804Z,2.88
2023-05-14T11:16:18.954Z,2.95
2023-05-14T11:18:54.693Z,2.90
2023-05-14T11:21:23.007Z,3.13
2023-05-14T11:23:52.113Z,3.35
2023-05-14T11:26:21.608Z,3.03
2023-05-14T11:28:50.390Z,3.42
2023-05-14T11:31:18.004Z,3.17
2023-05-14T11:33:45.851Z,3.00
2023-05-14T11:36:13.896Z,3.38
2023-05-14T11:38:48.721Z,4.13
2023-05-14T11:41:21.221Z,3.45
2023-05-14T11:43:49.066Z,3.30
2023-05-14T11:46:20.016Z,3.53
2023-05-14T11:48:48.057Z,3.88
2023-05-14T11:51:15.688Z,4.95
2023-05-14T11:53:43.259Z,3.53
2023-05-14T11:56:11.297Z,3.63
2023-05-14T11:58:41.491Z,4.07
2023-05-14T12:01:14.390Z,3.25
2023-05-14T12:03:42.353Z,3.95
2023-05-14T12:06:11.405Z,3.25
2023-05-14T12:08:39.132Z,3.05
2023-05-14T12:11:07.738Z,4.90
2023-05-14T12:13:35.577Z,3.00
2023-05-14T12:16:05.285Z,3.25
2023-05-14T12:18:34.695Z,3.40
2023-05-14T12:21:08.997Z,3.60
2023-05-14T12:23:36.576Z,3.45
2023-05-14T12:26:10.316Z,3.58
2023-05-14T12:28:44.409Z,4.05
2023-05-14T12:31:16.548Z,5.65
2023-05-14T12:33:45.673Z,3.67
2023-05-14T12:38:47.879Z,4.03
2023-05-14T12:41:18.091Z,3.80
2023-05-14T12:43:46.072Z,3.70
2023-05-14T12:46:16.415Z,3.13
2023-05-14T12:48:46.207Z,3.60
2023-05-14T12:51:13.946Z,4.25
2023-05-14T12:53:41.568Z,4.57
2023-05-14T12:56:11.038Z,3.83
2023-05-14T12:58:39.091Z,3.90
2023-05-14T13:01:11.421Z,3.25
2023-05-14T13:03:43.254Z,4.05
2023-05-14T13:06:10.845Z,3.65
2023-05-14T13:08:41.009Z,4.53
2023-05-14T13:13:37.583Z,3.03
2023-05-14T13:16:05.758Z,3.40
2023-05-14T13:18:33.849Z,4.55
2023-05-14T13:21:06.429Z,3.60
2023-05-14T13:23:34.156Z,2.92
2023-05-14T13:26:01.742Z,3.03
2023-05-14T13:28:29.290Z,4.38
2023-05-14T13:31:07.832Z,3.20
2023-05-14T13:33:36.780Z,4.10
2023-05-14T13:36:08.126Z,3.58
2023-05-14T13:38:36.375Z,3.00
2023-05-14T13:41:04.030Z,3.45
2023-05-14T13:43:32.631Z,4.18
2023-05-14T13:46:00.948Z,3.42
2023-05-14T13:48:29.400Z,2.63
2023-05-14T13:50:58.521Z,3.53
2023-05-14T13:53:32.170Z,4.00
2023-05-14T13:56:01.795Z,3.40
2023-05-14T13:58:29.483Z,3.28
2023-05-14T14:00:58.949Z,3.97
2023-05-14T14:03:27.956Z,3.38
2023-05-14T14:05:55.578Z,3.22
2023-05-14T14:08:24.546Z,3.33
2023-05-14T14:10:55.095Z,3.05
2023-05-14T14:13:23.242Z,4.15
2023-05-14T14:15:55.478Z,4.70
2023-05-14T14:18:23.230Z,3.15
2023-05-14T14:20:50.838Z,3.30
2023-05-14T14:23:19.920Z,3.40
2023-05-14T14:25:47.494Z,3.92
2023-05-14T14:28:16.457Z,3.20
2023-05-14T14:30:46.536Z,2.90
2023-05-14T14:33:14.211Z,2.83
2023-05-14T14:35:41.891Z,3.53
2023-05-14T14:38:09.718Z,3.78
2023-05-14T14:40:37.598Z,2.70
2023-05-14T14:43:05.448Z,2.97
2023-05-14T14:45:35.320Z,2.88
2023-05-14T14:48:26.102Z,2.90
2023-05-14T14:50:54.430Z,3.08
2023-05-14T14:53:24.437Z,3.08
2023-05-14T14:55:52.756Z,3.33
2023-05-14T14:58:21.364Z,3.08
2023-05-14T15:00:52.650Z,2.65
2023-05-14T15:03:21.577Z,5.22
2023-05-14T15:05:49.532Z,2.90
2023-05-14T15:08:19.437Z,3.25
2023-05-14T15:10:47.935Z,4.53
2023-05-14T15:13:17.518Z,3.33
2023-05-14T15:15:45.970Z,4.80
2023-05-14T15:18:14.931Z,3.90
2023-05-14T15:20:42.504Z,4.22
2023-05-14T15:23:11.484Z,3.15
2023-05-14T15:25:39.887Z,2.90
2023-05-14T15:28:08.530Z,3.20
2023-05-14T15:30:36.214Z,3.72
2023-05-14T15:33:04.162Z,3.17
2023-05-14T15:35:33.175Z,3.05
2023-05-14T15:38:01.438Z,3.58
2023-05-14T15:40:29.392Z,3.38
2023-05-14T15:43:01.452Z,3.13
2023-05-14T15:45:29.120Z,2.92
2023-05-14T15:47:56.778Z,2.75
2023-05-14T15:50:25.737Z,3.13
2023-05-14T15:52:55.318Z,3.15
2023-05-14T15:55:24.551Z,2.80
2023-05-14T15:57:53.135Z,3.50
2023-05-14T16:00:21.671Z,3.53
2023-05-14T16:02:52.215Z,2.83
2023-05-14T16:05:20.016Z,4.60
2023-05-14T16:07:47.656Z,3.58
2023-05-14T16:10:16.674Z,2.97
2023-05-14T16:12:44.275Z,3.70
2023-05-14T16:15:12.543Z,4.82
2023-05-14T16:17:40.792Z,4.28
2023-05-14T16:20:09.881Z,3.63
2023-05-14T16:22:37.589Z,3.58
2023-05-14T16:25:06.780Z,3.45
2023-05-14T16:27:36.496Z,3.28
2023-05-14T16:30:04.659Z,3.42
2023-05-14T16:32:34.476Z,4.18
2023-05-14T16:35:04.465Z,3.25
2023-05-14T16:37:32.919Z,3.03
2023-05-14T16:40:00.456Z,3.10
2023-05-14T16:42:28.585Z,2.83
2023-05-14T16:44:57.863Z,4.65
2023-05-14T16:47:25.850Z,2.78
2023-05-14T16:49:53.474Z,3.10
2023-05-14T16:52:21.130Z,2.53
2023-05-14T16:54:48.920Z,3.25
2023-05-14T16:57:17.420Z,3.40
2023-05-14T16:59:46.492Z,3.15
2023-05-14T17:02:16.491Z,3.38
2023-05-14T17:04:44.268Z,3.30
2023-05-14T17:07:12.299Z,3.50
2023-05-14T17:09:40.903Z,3.42
2023-05-14T17:12:09.512Z,3.33
2023-05-14T17:14:37.084Z,2.83
2023-05-14T17:17:05.305Z,3.40
2023-05-14T17:19:34.307Z,3.47
2023-05-14T17:22:03.900Z,5.00
2023-05-14T17:24:31.485Z,3.42
2023-05-14T17:26:59.627Z,3.45
2023-05-14T17:29:27.197Z,4.25
2023-05-14T17:31:55.285Z,4.85
2023-05-14T17:34:22.990Z,3.95
2023-05-14T17:36:52.700Z,4.05
2023-05-14T17:39:20.440Z,3.38
2023-05-14T17:41:48.210Z,3.58
2023-05-14T17:44:16.455Z,3.70
2023-05-14T17:46:44.679Z,3.08
2023-05-14T17:49:12.611Z,3.33
2023-05-14T17:51:41.483Z,3.83
2023-05-14T17:54:10.407Z,3.20
2023-05-14T17:56:38.528Z,3.00
2023-05-14T17:59:06.380Z,5.28
2023-05-14T18:01:34.298Z,3.63
2023-05-14T18:04:02.058Z,4.30
2023-05-14T18:06:29.778Z,2.95
2023-05-14T18:08:57.433Z,4.28
2023-05-14T18:11:32.522Z,3.40
2023-05-14T18:14:03.451Z,3.08
2023-05-14T18:16:31.755Z,4.55
2023-05-14T18:19:00.185Z,3.75
2023-05-14T18:21:27.851Z,3.78
2023-05-14T18:23:55.460Z,3.05
2023-05-14T18:26:23.559Z,3.72
2023-05-14T18:28:52.572Z,3.53
2023-05-14T18:31:20.528Z,3.00
2023-05-14T18:33:48.543Z,3.50
2023-05-14T18:36:16.206Z,5.28
2023-05-14T18:38:43.801Z,3.67
2023-05-14T18:41:11.359Z,4.35
2023-05-14T18:43:38.988Z,4.53
2023-05-14T18:46:07.941Z,3.50
2023-05-14T18:48:36.094Z,3.70
2023-05-14T18:51:05.217Z,4.03
2023-05-14T18:53:33.456Z,3.63
2023-05-14T18:56:01.193Z,3.70
2023-05-14T18:58:29.458Z,3.20
2023-05-14T19:00:58.408Z,3.35
2023-05-14T19:03:27.771Z,4.20
2023-05-14T19:05:55.635Z,4.05
2023-05-14T19:08:23.284Z,3.65
2023-05-14T19:10:50.875Z,3.45
2023-05-14T19:13:18.628Z,5.00
2023-05-14T19:15:46.350Z,3.60
2023-05-14T19:18:14.615Z,3.42
2023-05-14T19:20:46.159Z,3.70
2023-05-14T19:23:14.481Z,3.70
2023-05-14T19:25:42.073Z,3.38
2023-05-14T19:28:09.857Z,4.38
2023-05-14T19:30:37.425Z,3.97
2023-05-14T19:33:05.225Z,3.92
2023-05-14T19:35:32.893Z,3.40
2023-05-14T19:38:01.854Z,3.80
2023-05-14T19:40:29.736Z,3.72
2023-05-14T19:42:57.317Z,4.18
2023-05-14T19:45:25.821Z,4.60
2023-05-14T19:47:53.819Z,4.03
2023-05-14T19:50:22.135Z,4.18
2023-05-14T19:52:49.894Z,4.20
2023-05-14T19:55:20.484Z,3.70
2023-05-14T19:57:49.539Z,4.05
2023-05-14T20:00:17.531Z,4.85
2023-05-14T20:02:47.736Z,4.90
2023-05-14T20:05:16.454Z,3.92
2023-05-14T20:07:44.741Z,3.38
2023-05-14T20:10:12.483Z,4.18
2023-05-14T20:12:42.328Z,4.93
2023-05-14T20:15:10.692Z,4.00
2023-05-14T20:17:38.682Z,4.28
2023-05-14T20:20:09.012Z,3.92
2023-05-14T20:22:38.179Z,5.22
2023-05-14T20:25:06.686Z,4.50
2023-05-14T20:27:34.480Z,3.85
2023-05-14T20:30:04.717Z,4.45
2023-05-14T20:32:33.498Z,4.35
2023-05-14T20:35:02.831Z,4.30
2023-05-14T20:37:33.481Z,5.38
2023-05-14T20:40:04.734Z,4.57
2023-05-14T20:42:32.430Z,4.00
2023-05-14T20:45:00.641Z,4.18
2023-05-14T20:47:32.885Z,5.20
2023-05-14T20:50:01.701Z,5.47
2023-05-14T20:52:29.416Z,4.80
2023-05-14T20:54:58.795Z,3.97
2023-05-14T20:57:29.471Z,4.28
2023-05-14T20:59:57.033Z,4.70
2023-05-14T21:02:25.031Z,4.55
2023-05-14T21:04:54.332Z,4.85
2023-05-14T21:07:22.668Z,3.67
2023-05-14T21:09:52.308Z,4.13
2023-05-14T21:12:20.128Z,4.75
2023-05-14T21:14:47.680Z,5.15
2023-05-14T21:17:15.504Z,5.50
2023-05-14T21:19:43.047Z,5.00
2023-05-14T21:22:14.280Z,3.67
2023-05-14T21:24:42.076Z,4.60
2023-05-14T21:27:09.704Z,5.05
2023-05-14T21:29:37.236Z,4.18
2023-05-14T21:32:05.548Z,4.75
2023-05-14T21:34:33.311Z,4.30
2023-05-14T21:37:01.048Z,6.32
2023-05-14T21:39:30.134Z,6.25
2023-05-14T21:41:57.660Z,5.47
2023-05-14T21:44:25.986Z,6.80
2023-05-14T21:46:53.568Z,5.50
2023-05-14T21:49:23.545Z,4.80
2023-05-14T21:51:53.999Z,5.43
2023-05-14T21:54:22.325Z,5.93
2023-05-14T21:56:52.316Z,4.63
2023-05-14T21:59:20.025Z,5.70
2023-05-14T22:02:06.141Z,6.35
2023-05-14T22:04:35.444Z,5.25
2023-05-14T22:07:03.216Z,5.70
2023-05-14T22:09:31.472Z,4.85
2023-05-14T22:12:01.303Z,4.63
2023-05-14T22:14:29.317Z,5.82
2023-05-14T22:16:57.569Z,6.88
2023-05-14T22:19:29.504Z,6.15
2023-05-14T22:22:00.484Z,6.03
2023-05-14T22:24:28.124Z,5.20
2023-05-14T22:26:55.716Z,6.82
2023-05-14T22:29:24.776Z,5.07
2023-05-14T22:31:53.545Z,5.82
2023-05-14T22:34:22.169Z,4.53
2023-05-14T22:36:49.986Z,5.63
2023-05-14T22:39:19.078Z,5.35
2023-05-14T22:41:46.762Z,6.07
2023-05-14T22:44:14.357Z,5.50
2023-05-14T22:46:43.335Z,6.18
2023-05-14T22:49:11.588Z,5.68
2023-05-14T22:51:39.906Z,6.47
2023-05-14T22:54:07.976Z,7.40
2023-05-14T22:56:39.659Z,5.97
2023-05-14T22:59:08.063Z,5.78
2023-05-14T23:01:35.648Z,5.53
2023-05-14T23:04:07.369Z,5.10
2023-05-14T23:06:35.081Z,6.20
2023-05-14T23:09:03.215Z,5.07
2023-05-14T23:11:31.688Z,6.03
2023-05-14T23:14:00.492Z,7.22
2023-05-14T23:16:28.065Z,6.03
2023-05-14T23:18:55.822Z,5.47
2023-05-14T23:21:25.583Z,5.45
2023-05-14T23:23:53.525Z,5.50
2023-05-14T23:26:22.497Z,4.80
2023-05-14T23:28:51.033Z,6.78
2023-05-14T23:31:19.501Z,5.50
2023-05-14T23:33:47.567Z,4.75
2023-05-14T23:36:16.963Z,6.47
2023-05-14T23:38:46.019Z,5.55
2023-05-14T23:41:13.857Z,6.25
2023-05-14T23:43:42.022Z,5.82
2023-05-14T23:46:09.771Z,5.63
2023-05-14T23:48:38.109Z,5.53
2023-05-14T23:51:05.810Z,5.93
2023-05-14T23:53:33.448Z,5.63
2023-05-14T23:56:02.613Z,5.95
